createdAt,value
2023-04-23T00:01:59.589Z,30.13
2023-04-23T00:04:28.867Z,30.63
2023-04-23T00:06:57.140Z,28.67
2023-04-23T00:09:24.068Z,27.63
2023-04-23T00:11:50.927Z,26.90
2023-04-23T00:14:17.871Z,28.83
2023-04-23T00:16:45.056Z,30.00
2023-04-23T00:19:11.681Z,28.13
2023-04-23T00:21:38.360Z,27.00
2023-04-23T00:24:05.298Z,28.47
2023-04-23T00:26:31.884Z,28.97
2023-04-23T00:28:58.465Z,27.47
2023-04-23T00:31:27.398Z,27.90
2023-04-23T00:33:54.199Z,31.63
2023-04-23T00:36:20.804Z,29.10
2023-04-23T00:38:48.006Z,30.77
2023-04-23T00:41:15.208Z,29.63
2023-04-23T00:43:41.859Z,28.33
2023-04-23T00:46:08.862Z,29.40
2023-04-23T00:48:36.866Z,32.20
2023-04-23T00:51:05.471Z,31.40
2023-04-23T00:53:33.441Z,30.00
2023-04-23T00:56:01.945Z,27.83
2023-04-23T00:58:29.679Z,35.00
2023-04-23T01:00:56.844Z,26.00
2023-04-23T01:03:24.347Z,31.07
2023-04-23T01:05:51.940Z,28.07
2023-04-23T01:08:18.679Z,29.60
2023-04-23T01:10:46.017Z,31.87
2023-04-23T01:13:14.026Z,35.40
2023-04-23T01:15:40.971Z,29.47
2023-04-23T01:18:07.852Z,30.83
2023-04-23T01:20:35.502Z,33.70
2023-04-23T01:23:06.055Z,32.20
2023-04-23T01:25:32.666Z,30.27
2023-04-23T01:27:59.772Z,30.50
2023-04-23T01:30:27.571Z,31.00
2023-04-23T01:32:57.626Z,34.77
2023-04-23T01:35:25.416Z,31.50
2023-04-23T01:37:53.603Z,33.20
2023-04-23T01:40:21.085Z,32.40
2023-04-23T01:42:51.088Z,36.67
2023-04-23T01:45:19.990Z,35.97
2023-04-23T01:47:47.795Z,44.43
2023-04-23T01:50:14.972Z,38.50
2023-04-23T01:52:42.085Z,35.77
2023-04-23T01:55:09.377Z,31.20
2023-04-23T01:57:36.435Z,38.27
2023-04-23T02:00:11.360Z,34.83
2023-04-23T02:02:40.054Z,37.03
2023-04-23T02:05:16.429Z,35.40
2023-04-23T02:07:43.882Z,36.47
2023-04-23T02:10:10.895Z,35.57
2023-04-23T02:12:38.205Z,36.00
2023-04-23T02:15:06.564Z,40.93
2023-04-23T02:17:33.305Z,41.67
2023-04-23T02:20:00.006Z,34.73
2023-04-23T02:22:26.952Z,35.17
2023-04-23T02:24:54.403Z,36.27
2023-04-23T02:27:22.026Z,35.47
2023-04-23T02:29:49.552Z,39.60
2023-04-23T02:32:16.205Z,37.43
2023-04-23T02:34:43.211Z,39.30
2023-04-23T02:37:10.374Z,37.50
2023-04-23T02:39:38.964Z,41.10
2023-04-23T02:42:05.806Z,34.57
2023-04-23T02:44:32.706Z,37.00
2023-04-23T02:46:59.301Z,34.30
2023-04-23T02:49:26.117Z,31.53
2023-04-23T02:51:52.734Z,33.43
2023-04-23T02:54:19.349Z,35.80
2023-04-23T02:56:46.350Z,33.77
2023-04-23T02:59:12.983Z,39.33
2023-04-23T03:01:39.554Z,38.73
2023-04-23T03:04:06.287Z,35.83
2023-04-23T03:06:35.629Z,35.47
2023-04-23T03:09:02.250Z,37.93
2023-04-23T03:11:28.829Z,38.63
2023-04-23T03:13:55.550Z,37.70
2023-04-23T03:16:22.209Z,36.20
2023-04-23T03:18:48.883Z,37.50
2023-04-23T03:21:15.573Z,33.63
2023-04-23T03:23:42.177Z,39.37
2023-04-23T03:26:09.137Z,53.73
2023-04-23T03:28:35.822Z,109.30
2023-04-23T03:31:02.418Z,90.47
2023-04-23T03:33:29.067Z,63.73
2023-04-23T03:35:55.714Z,87.67
2023-04-23T03:38:22.309Z,86.57
2023-04-23T03:40:48.948Z,53.73
2023-04-23T03:43:15.583Z,78.03
2023-04-23T03:45:42.173Z,64.43
2023-04-23T03:48:08.752Z,98.70
2023-04-23T03:50:38.939Z,87.03
2023-04-23T03:53:10.089Z,62.03
2023-04-23T03:55:36.704Z,95.70
2023-04-23T03:58:03.525Z,52.50
2023-04-23T04:00:30.247Z,41.03
2023-04-23T04:02:57.063Z,43.57
2023-04-23T04:05:23.937Z,42.80
2023-04-23T04:07:50.610Z,63.53
2023-04-23T04:10:17.288Z,40.07
2023-04-23T04:12:45.509Z,44.77
2023-04-23T04:15:12.172Z,50.93
2023-04-23T04:17:38.959Z,43.50
2023-04-23T04:20:08.277Z,39.33
2023-04-23T04:22:34.947Z,34.27
2023-04-23T04:25:01.644Z,45.40
2023-04-23T04:27:28.237Z,39.13
2023-04-23T04:29:54.809Z,45.37
2023-04-23T04:32:22.244Z,36.90
2023-04-23T04:34:50.024Z,35.80
2023-04-23T04:37:17.076Z,40.90
2023-04-23T04:39:44.035Z,36.63
2023-04-23T04:42:10.719Z,31.80
2023-04-23T04:44:37.509Z,33.63
2023-04-23T04:47:05.062Z,30.57
2023-04-23T04:49:32.086Z,33.70
2023-04-23T04:51:58.705Z,33.50
2023-04-23T04:54:25.361Z,30.57
2023-04-23T04:56:51.941Z,33.37
2023-04-23T04:59:18.619Z,29.37
2023-04-23T05:01:45.604Z,31.30
2023-04-23T05:04:12.491Z,30.27
2023-04-23T05:06:39.296Z,28.27
2023-04-23T05:09:05.886Z,29.43
2023-04-23T05:11:32.666Z,25.00
2023-04-23T05:13:59.249Z,26.50
2023-04-23T05:16:25.917Z,28.53
2023-04-23T05:18:52.543Z,28.83
2023-04-23T05:21:19.610Z,27.00
2023-04-23T05:23:46.332Z,24.27
2023-04-23T05:26:13.060Z,24.80
2023-04-23T05:28:39.649Z,22.20
2023-04-23T05:31:06.288Z,21.63
2023-04-23T05:33:39.232Z,22.03
2023-04-23T05:36:09.374Z,22.83
2023-04-23T05:38:36.099Z,32.93
2023-04-23T05:41:02.921Z,23.47
2023-04-23T05:43:29.553Z,22.13
2023-04-23T05:45:56.337Z,21.67
2023-04-23T05:48:23.140Z,19.30
2023-04-23T05:50:49.711Z,23.13
2023-04-23T05:53:16.381Z,17.93
2023-04-23T05:55:42.944Z,18.70
2023-04-23T05:58:09.509Z,17.03
2023-04-23T06:00:37.031Z,20.13
2023-04-23T06:03:03.854Z,16.30
2023-04-23T06:05:30.614Z,15.33
2023-04-23T06:07:58.324Z,15.90
2023-04-23T06:10:24.996Z,19.00
2023-04-23T06:12:53.991Z,15.17
2023-04-23T06:15:20.868Z,12.97
2023-04-23T06:17:47.509Z,14.13
2023-04-23T06:20:14.243Z,16.10
2023-04-23T06:22:40.969Z,14.70
2023-04-23T06:25:08.135Z,16.07
2023-04-23T06:27:34.858Z,16.80
2023-04-23T06:30:01.479Z,15.53
2023-04-23T06:32:28.169Z,12.60
2023-04-23T06:35:01.689Z,13.87
2023-04-23T06:37:30.624Z,15.03
2023-04-23T06:40:00.803Z,12.90
2023-04-23T06:42:27.675Z,19.37
2023-04-23T06:44:54.499Z,13.57
2023-04-23T06:47:21.173Z,13.87
2023-04-23T06:49:47.880Z,12.53
2023-04-23T06:52:14.535Z,13.30
2023-04-23T06:54:41.408Z,14.30
2023-04-23T06:57:08.450Z,12.80
2023-04-23T06:59:35.136Z,12.60
2023-04-23T07:02:03.930Z,13.73
2023-04-23T07:04:30.681Z,14.40
2023-04-23T07:06:57.413Z,11.90
2023-04-23T07:09:24.499Z,12.30
2023-04-23T07:11:51.254Z,13.23
2023-04-23T07:14:17.832Z,15.10
2023-04-23T07:16:44.626Z,12.90
2023-04-23T07:19:11.311Z,12.87
2023-04-23T07:21:38.025Z,13.20
2023-04-23T07:24:07.028Z,13.90
2023-04-23T07:26:37.388Z,12.00
2023-04-23T07:29:07.968Z,13.47
2023-04-23T07:31:34.663Z,12.20
2023-04-23T07:34:01.306Z,13.83
2023-04-23T07:36:28.268Z,13.90
2023-04-23T07:38:54.890Z,13.13
2023-04-23T07:41:21.967Z,14.33
2023-04-23T07:43:48.594Z,17.63
2023-04-23T07:46:15.369Z,18.60
2023-04-23T07:48:41.983Z,14.27
2023-04-23T07:51:08.742Z,16.87
2023-04-23T07:53:35.665Z,12.50
2023-04-23T07:56:02.410Z,14.90
2023-04-23T07:58:29.040Z,14.10
2023-04-23T08:00:55.670Z,12.80
2023-04-23T08:03:23.750Z,14.07
2023-04-23T08:05:50.994Z,14.93
2023-04-23T08:08:17.587Z,14.83
2023-04-23T08:10:45.093Z,15.67
2023-04-23T08:13:11.730Z,16.00
2023-04-23T08:15:38.566Z,19.13
2023-04-23T08:18:05.504Z,17.47
2023-04-23T08:20:32.655Z,17.67
2023-04-23T08:22:59.448Z,15.90
2023-04-23T08:25:26.082Z,13.57
2023-04-23T08:27:53.070Z,14.63
2023-04-23T08:30:19.735Z,12.67
2023-04-23T08:32:49.987Z,17.03
2023-04-23T08:35:16.754Z,17.13
2023-04-23T08:37:43.413Z,13.50
2023-04-23T08:40:10.398Z,15.27
2023-04-23T08:42:51.661Z,13.57
2023-04-23T08:45:19.294Z,15.50
2023-04-23T08:47:46.236Z,17.37
2023-04-23T08:50:16.594Z,14.80
2023-04-23T08:52:49.597Z,11.50
2023-04-23T08:55:18.731Z,11.23
2023-04-23T08:57:46.670Z,14.00
2023-04-23T09:00:15.440Z,16.53
2023-04-23T09:02:44.443Z,13.53
2023-04-23T09:05:11.843Z,12.50
2023-04-23T09:07:38.845Z,14.30
2023-04-23T09:10:07.537Z,13.60
2023-04-23T09:12:38.981Z,12.70
2023-04-23T09:15:11.096Z,12.40
2023-04-23T09:17:43.742Z,12.57
2023-04-23T09:20:11.256Z,17.57
2023-04-23T09:22:47.310Z,20.57
2023-04-23T09:25:17.743Z,14.53
2023-04-23T09:27:45.710Z,14.30
2023-04-23T09:30:13.641Z,12.80
2023-04-23T09:32:45.869Z,18.27
2023-04-23T09:35:15.567Z,13.17
2023-04-23T09:37:49.535Z,14.63
2023-04-23T09:40:19.905Z,12.67
2023-04-23T09:42:53.110Z,14.03
2023-04-23T09:45:19.987Z,16.30
2023-04-23T09:47:58.292Z,14.40
2023-04-23T09:50:37.156Z,12.50
2023-04-23T09:53:04.948Z,14.03
2023-04-23T09:55:39.790Z,13.93
2023-04-23T09:58:11.737Z,13.30
2023-04-23T10:00:40.053Z,13.73
2023-04-23T10:06:01.662Z,15.10
2023-04-23T10:08:30.962Z,13.37
2023-04-23T10:11:06.602Z,12.50
2023-04-23T10:13:41.411Z,14.20
2023-04-23T10:16:21.555Z,13.73
2023-04-23T10:18:52.397Z,13.30
2023-04-23T10:21:19.990Z,13.13
2023-04-23T10:23:48.429Z,14.23
2023-04-23T10:26:16.730Z,15.87
2023-04-23T10:28:48.006Z,16.47
2023-04-23T10:31:15.704Z,18.63
2023-04-23T10:33:56.086Z,16.30
2023-04-23T10:36:27.596Z,15.20
2023-04-23T10:38:58.714Z,15.17
2023-04-23T10:41:31.759Z,18.80
2023-04-23T10:43:58.368Z,19.10
2023-04-23T10:46:32.383Z,14.23
2023-04-23T10:49:15.103Z,13.40
2023-04-23T10:54:16.707Z,13.20
2023-04-23T10:56:43.940Z,15.40
2023-04-23T10:59:21.012Z,15.13
2023-04-23T11:01:49.847Z,15.13
2023-04-23T11:04:21.944Z,13.20
2023-04-23T11:06:48.897Z,12.20
2023-04-23T11:09:34.953Z,14.03
2023-04-23T11:12:03.427Z,14.27
2023-04-23T11:14:43.599Z,13.27
2023-04-23T11:17:15.814Z,14.30
2023-04-23T11:20:03.036Z,16.20
2023-04-23T11:22:47.709Z,13.60
2023-04-23T11:25:19.179Z,13.33
2023-04-23T11:27:48.025Z,13.50
2023-04-23T11:30:17.032Z,16.17
2023-04-23T11:32:49.567Z,13.63
2023-04-23T11:35:21.594Z,14.07
2023-04-23T11:37:49.234Z,14.80
2023-04-23T11:40:20.817Z,16.40
2023-04-23T11:42:53.867Z,13.27
2023-04-23T11:45:26.544Z,16.40
2023-04-23T11:47:58.153Z,13.70
2023-04-23T11:50:36.160Z,13.27
2023-04-23T11:53:08.820Z,12.70
2023-04-23T11:55:35.761Z,19.77
2023-04-23T11:58:03.425Z,13.20
2023-04-23T12:00:30.247Z,15.17
2023-04-23T12:03:01.839Z,13.27
2023-04-23T12:05:39.603Z,14.13
2023-04-23T12:08:07.799Z,13.57
2023-04-23T12:10:41.446Z,13.33
2023-04-23T12:13:12.924Z,13.17
2023-04-23T12:15:57.293Z,15.23
2023-04-23T12:18:39.219Z,12.83
2023-04-23T12:21:11.230Z,14.97
2023-04-23T12:23:39.317Z,13.00
2023-04-23T12:26:12.085Z,12.20
2023-04-23T12:28:51.324Z,14.17
2023-04-23T12:31:23.320Z,14.90
2023-04-23T12:34:03.374Z,13.33
2023-04-23T12:36:33.359Z,13.70
2023-04-23T12:39:30.764Z,14.70
2023-04-23T12:42:02.941Z,14.63
2023-04-23T12:44:30.672Z,16.20
2023-04-23T12:47:04.724Z,16.33
2023-04-23T12:49:33.296Z,17.20
2023-04-23T12:52:01.599Z,13.30
2023-04-23T12:54:33.876Z,15.73
2023-04-23T12:57:03.722Z,16.60
2023-04-23T12:59:31.931Z,16.30
2023-04-23T13:02:02.710Z,14.70
2023-04-23T13:04:35.900Z,15.63
2023-04-23T13:07:02.661Z,20.33
2023-04-23T13:09:29.547Z,13.80
2023-04-23T13:11:56.466Z,15.50
2023-04-23T13:14:23.571Z,15.00
2023-04-23T13:16:50.516Z,14.60
2023-04-23T13:19:17.674Z,15.00
2023-04-23T13:21:45.110Z,18.37
2023-04-23T13:24:11.919Z,15.60
2023-04-23T13:26:38.806Z,17.30
2023-04-23T13:29:06.000Z,16.87
2023-04-23T13:31:32.814Z,14.17
2023-04-23T13:33:59.494Z,14.93
2023-04-23T13:36:26.238Z,17.27
2023-04-23T13:38:53.028Z,14.30
2023-04-23T13:41:19.836Z,17.50
2023-04-23T13:43:46.539Z,14.00
2023-04-23T13:46:14.188Z,13.90
2023-04-23T13:48:41.736Z,20.30
2023-04-23T13:51:17.904Z,13.77
2023-04-23T13:53:53.149Z,15.27
2023-04-23T13:56:19.790Z,15.00
2023-04-23T13:58:48.830Z,15.90
2023-04-23T14:01:16.146Z,14.67
2023-04-23T14:03:42.898Z,13.03
2023-04-23T14:06:09.575Z,13.83
2023-04-23T14:08:38.241Z,13.80
2023-04-23T14:11:04.974Z,15.40
2023-04-23T14:13:32.703Z,13.50
2023-04-23T14:16:01.363Z,12.73
2023-04-23T14:18:30.510Z,13.37
2023-04-23T14:20:57.252Z,13.80
2023-04-23T14:23:23.881Z,15.90
2023-04-23T14:25:58.811Z,14.77
2023-04-23T14:28:33.652Z,13.50
2023-04-23T14:31:02.922Z,13.80
2023-04-23T14:33:29.556Z,13.23
2023-04-23T14:35:56.268Z,12.60
2023-04-23T14:38:22.975Z,16.37
2023-04-23T14:40:49.603Z,13.87
2023-04-23T14:43:16.491Z,13.80
2023-04-23T14:45:43.406Z,16.03
2023-04-23T14:48:10.423Z,12.80
2023-04-23T14:50:37.205Z,14.10
2023-04-23T14:53:07.789Z,14.40
2023-04-23T14:55:34.433Z,15.17
2023-04-23T14:58:01.549Z,13.00
2023-04-23T15:00:28.474Z,13.73
2023-04-23T15:02:55.397Z,12.80
2023-04-23T15:05:22.250Z,13.57
2023-04-23T15:07:48.818Z,12.80
2023-04-23T15:10:15.470Z,13.07
2023-04-23T15:12:53.153Z,12.40
2023-04-23T15:15:43.768Z,13.23
2023-04-23T15:18:13.326Z,12.00
2023-04-23T15:20:39.997Z,18.63
2023-04-23T15:23:06.930Z,12.13
2023-04-23T15:25:34.242Z,12.47
2023-04-23T15:28:01.512Z,12.20
2023-04-23T15:30:28.514Z,10.70
2023-04-23T15:32:55.783Z,11.70
2023-04-23T15:35:23.410Z,11.53
2023-04-23T15:37:50.636Z,11.70
2023-04-23T15:40:17.686Z,12.63
2023-04-23T15:42:44.494Z,12.77
2023-04-23T15:45:11.840Z,15.73
2023-04-23T15:47:39.313Z,12.17
2023-04-23T15:50:07.133Z,11.30
2023-04-23T15:52:34.093Z,12.00
2023-04-23T15:55:00.815Z,11.30
2023-04-23T15:57:27.590Z,11.73
2023-04-23T15:59:55.634Z,11.77
2023-04-23T16:02:23.417Z,11.27
2023-04-23T16:04:51.151Z,13.93
2023-04-23T16:07:17.972Z,12.10
2023-04-23T16:09:44.716Z,12.77
2023-04-23T16:12:12.550Z,12.40
2023-04-23T16:14:40.095Z,13.50
2023-04-23T16:17:08.304Z,16.27
2023-04-23T16:19:34.984Z,16.50
2023-04-23T16:22:01.601Z,13.50
2023-04-23T16:24:29.172Z,14.37
2023-04-23T16:26:55.775Z,13.70
2023-04-23T16:29:23.188Z,12.63
2023-04-23T16:31:50.306Z,13.00
2023-04-23T16:34:17.221Z,13.43
2023-04-23T16:36:43.858Z,11.53
2023-04-23T16:39:11.204Z,11.30
2023-04-23T16:41:38.078Z,12.57
2023-04-23T16:44:04.787Z,13.73
2023-04-23T16:46:31.970Z,11.90
2023-04-23T16:48:58.977Z,10.40
2023-04-23T16:51:26.759Z,12.40
2023-04-23T16:53:53.432Z,10.37
2023-04-23T16:56:21.011Z,11.03
2023-04-23T16:58:47.812Z,14.33
2023-04-23T17:01:17.640Z,10.97
2023-04-23T17:03:45.223Z,11.00
2023-04-23T17:06:27.581Z,12.60
2023-04-23T17:08:55.239Z,10.60
2023-04-23T17:11:23.005Z,12.03
2023-04-23T17:13:51.582Z,9.30
2023-04-23T17:16:18.670Z,12.10
2023-04-23T17:18:45.918Z,10.07
2023-04-23T17:21:12.800Z,10.07
2023-04-23T17:23:39.761Z,11.10
2023-04-23T17:26:06.795Z,9.73
2023-04-23T17:28:33.380Z,13.93
2023-04-23T17:31:01.151Z,9.90
2023-04-23T17:33:28.105Z,9.20
2023-04-23T17:35:57.424Z,8.93
2023-04-23T17:38:26.029Z,8.83
2023-04-23T17:40:53.321Z,9.40
2023-04-23T17:43:20.661Z,9.40
2023-04-23T17:45:47.908Z,8.60
2023-04-23T17:48:15.464Z,9.00
2023-04-23T17:50:43.006Z,11.00
2023-04-23T17:53:10.022Z,8.57
2023-04-23T17:55:36.640Z,10.97
2023-04-23T17:58:06.403Z,8.90
2023-04-23T18:00:42.889Z,8.70
2023-04-23T18:03:10.125Z,8.77
2023-04-23T18:05:37.191Z,9.20
2023-04-23T18:08:04.439Z,10.13
2023-04-23T18:10:31.316Z,8.57
2023-04-23T18:12:58.156Z,8.40
2023-04-23T18:15:25.642Z,8.83
2023-04-23T18:17:55.673Z,8.00
2023-04-23T18:20:24.894Z,9.20
2023-04-23T18:22:54.203Z,10.10
2023-04-23T18:25:21.046Z,9.40
2023-04-23T18:27:48.875Z,8.70
2023-04-23T18:30:15.702Z,8.70
2023-04-23T18:32:47.184Z,10.20
2023-04-23T18:35:14.040Z,9.10
2023-04-23T18:37:48.997Z,13.53
2023-04-23T18:40:15.600Z,9.30
2023-04-23T18:42:42.179Z,9.50
2023-04-23T18:45:10.533Z,11.70
2023-04-23T18:47:44.016Z,9.07
2023-04-23T18:50:43.594Z,10.07
2023-04-23T18:53:10.223Z,10.50
2023-04-23T18:55:36.976Z,10.23
2023-04-23T18:58:05.776Z,9.87
2023-04-23T19:00:32.574Z,9.17
2023-04-23T19:02:59.316Z,9.27
2023-04-23T19:05:26.439Z,9.50
2023-04-23T19:07:53.188Z,9.03
2023-04-23T19:10:19.891Z,10.20
2023-04-23T19:12:47.606Z,10.40
2023-04-23T19:15:15.585Z,9.43
2023-04-23T19:17:42.320Z,9.50
2023-04-23T19:20:11.095Z,9.63
2023-04-23T19:22:42.439Z,8.03
2023-04-23T19:25:09.374Z,8.37
2023-04-23T19:27:36.274Z,8.23
2023-04-23T19:30:05.033Z,9.03
2023-04-23T19:32:35.099Z,9.33
2023-04-23T19:35:02.910Z,9.40
2023-04-23T19:37:30.495Z,9.70
2023-04-23T19:39:57.094Z,8.60
2023-04-23T19:42:23.788Z,10.40
2023-04-23T19:44:50.393Z,10.00
2023-04-23T19:47:18.140Z,13.10
2023-04-23T19:49:45.085Z,8.37
2023-04-23T19:52:17.103Z,10.07
2023-04-23T19:54:48.920Z,8.70
2023-04-23T19:57:18.383Z,10.37
2023-04-23T19:59:45.883Z,8.67
2023-04-23T20:02:12.818Z,8.60
2023-04-23T20:04:39.678Z,10.43
2023-04-23T20:07:06.951Z,9.10
2023-04-23T20:09:34.349Z,9.20
2023-04-23T20:12:03.065Z,9.83
2023-04-23T20:14:31.741Z,8.80
2023-04-23T20:16:58.713Z,9.07
2023-04-23T20:19:26.038Z,9.87
2023-04-23T20:21:53.077Z,9.10
2023-04-23T20:24:21.373Z,8.40
2023-04-23T20:26:48.971Z,11.03
2023-04-23T20:29:15.588Z,8.87
2023-04-23T20:31:42.368Z,8.60
2023-04-23T20:34:09.061Z,8.37
2023-04-23T20:36:38.597Z,8.30
2023-04-23T20:39:05.262Z,8.87
2023-04-23T20:41:36.365Z,8.97
2023-04-23T20:44:05.078Z,8.80
2023-04-23T20:46:32.646Z,9.43
2023-04-23T20:49:03.079Z,9.17
2023-04-23T20:51:29.887Z,8.43
2023-04-23T20:53:59.346Z,9.77
2023-04-23T20:56:26.263Z,8.13
2023-04-23T20:58:52.936Z,8.10
2023-04-23T21:01:19.754Z,9.83
2023-04-23T21:03:46.509Z,8.67
2023-04-23T21:06:13.273Z,10.00
2023-04-23T21:08:42.413Z,8.00
2023-04-23T21:11:13.723Z,8.00
2023-04-23T21:13:41.002Z,9.23
2023-04-23T21:16:07.932Z,7.83
2023-04-23T21:18:34.670Z,7.90
2023-04-23T21:21:01.514Z,9.00
2023-04-23T21:23:28.212Z,7.63
2023-04-23T21:25:55.333Z,7.67
2023-04-23T21:28:22.309Z,7.70
2023-04-23T21:30:57.195Z,7.80
2023-04-23T21:33:25.175Z,9.70
2023-04-23T21:35:52.987Z,7.47
2023-04-23T21:38:20.429Z,7.83
2023-04-23T21:40:47.096Z,7.57
2023-04-23T21:43:14.244Z,8.20
2023-04-23T21:45:41.051Z,7.50
2023-04-23T21:48:07.937Z,8.47
2023-04-23T21:50:34.804Z,8.90
2023-04-23T21:53:03.091Z,7.40
2023-04-23T21:55:31.515Z,8.00
2023-04-23T21:58:09.888Z,7.60
2023-04-23T22:00:44.392Z,7.30
2023-04-23T22:03:11.740Z,7.97
2023-04-23T22:05:39.216Z,8.20
2023-04-23T22:08:07.504Z,8.50
2023-04-23T22:10:34.291Z,8.17
2023-04-23T22:13:01.221Z,7.60
2023-04-23T22:15:29.099Z,7.80
2023-04-23T22:17:59.020Z,7.60
2023-04-23T22:20:25.755Z,7.87
2023-04-23T22:22:52.367Z,9.83
2023-04-23T22:25:19.421Z,9.50
2023-04-23T22:27:46.091Z,11.33
2023-04-23T22:30:13.028Z,9.73
2023-04-23T22:32:39.935Z,10.10
2023-04-23T22:35:07.981Z,11.53
2023-04-23T22:37:35.318Z,13.90
2023-04-23T22:40:03.913Z,9.80
2023-04-23T22:42:30.646Z,10.97
2023-04-23T22:44:57.261Z,10.87
2023-04-23T22:47:23.914Z,12.10
2023-04-23T22:49:51.163Z,12.67
2023-04-23T22:52:17.888Z,13.80
2023-04-23T22:54:45.517Z,11.30
2023-04-23T22:57:12.439Z,10.50
2023-04-23T22:59:39.999Z,9.43
2023-04-23T23:02:07.378Z,8.63
2023-04-23T23:04:37.564Z,7.63
2023-04-23T23:07:08.101Z,9.00
2023-04-23T23:09:34.874Z,8.00
2023-04-23T23:12:02.894Z,8.03
2023-04-23T23:14:30.223Z,9.47
2023-04-23T23:16:57.251Z,7.70
2023-04-23T23:19:30.956Z,8.43
2023-04-23T23:21:57.638Z,9.00
2023-04-23T23:24:24.274Z,8.57
2023-04-23T23:26:51.283Z,7.60
2023-04-23T23:29:17.996Z,7.70
2023-04-23T23:31:44.782Z,9.97
2023-04-23T23:34:12.025Z,8.60
2023-04-23T23:36:38.683Z,10.30
2023-04-23T23:39:06.481Z,7.60
2023-04-23T23:41:33.128Z,7.37
2023-04-23T23:43:59.824Z,9.03
2023-04-23T23:46:26.474Z,13.40
2023-04-23T23:48:53.219Z,7.80
2023-04-23T23:51:20.030Z,8.43
2023-04-23T23:53:46.723Z,10.17
2023-04-23T23:56:13.328Z,7.90
2023-04-23T23:58:39.956Z,7.50
